Time;durP1;ratioP1;P1;durP2;ratioP2;P2;SDS_P1;SDS_P2;PMS_P1;PMS_P2;Temp;Humidity;BMP_temperature;BMP_pressure;BME280_temperature;BME280_humidity;BME280_pressure;Samples;Min_cycle;Max_cycle;Signal;HPM_P1;HPM_P2
2022/12/07 00:01:34;;;;;;;9.40;5.20;;;;;;;6.45;60.72;100854.02;106266;1303;22762;-67
2022/12/07 00:04:04;;;;;;;10.90;5.60;;;;;;;6.51;60.48;100857.60;106326;1301;21976;-67
2022/12/07 00:06:37;;;;;;;7.90;5.10;;;;;;;6.50;60.29;100854.61;106290;1300;21962;-67
2022/12/07 00:09:04;;;;;;;10.60;4.90;;;;;;;6.50;60.16;100858.10;106361;1299;21970;-63
2022/12/07 00:11:30;;;;;;;8.20;4.70;;;;;;;6.45;60.54;100857.34;106427;1301;22007;-66
2022/12/07 00:13:57;;;;;;;8.60;4.30;;;;;;;6.39;60.94;100853.44;106286;1301;22018;-67
2022/12/07 00:16:27;;;;;;;7.30;4.50;;;;;;;6.43;61.20;100849.99;106351;1303;22100;-65
2022/12/07 00:18:53;;;;;;;8.20;5.00;;;;;;;6.45;61.06;100846.52;106315;1302;21950;-64
2022/12/07 00:21:22;;;;;;;7.80;5.30;;;;;;;6.44;60.95;100847.38;106301;1303;21970;-64
2022/12/07 00:23:48;;;;;;;8.50;5.40;;;;;;;6.48;60.96;100843.42;106338;1303;21963;-64
2022/12/07 00:26:17;;;;;;;11.80;5.90;;;;;;;6.48;60.62;100841.52;106333;1298;21957;-67
2022/12/07 00:28:50;;;;;;;14.10;5.70;;;;;;;6.50;60.94;100841.02;106456;1301;21958;-65
2022/12/07 00:31:17;;;;;;;9.40;5.20;;;;;;;6.53;60.87;100839.31;106517;1301;21954;-66
2022/12/07 00:33:43;;;;;;;8.70;4.90;;;;;;;6.57;60.58;100837.96;106419;1301;21969;-67
2022/12/07 00:36:11;;;;;;;7.40;4.50;;;;;;;6.60;60.70;100833.98;106500;1303;21964;-63
2022/12/07 00:38:37;;;;;;;6.80;3.90;;;;;;;6.66;60.56;100831.44;106383;1301;22007;-67
2022/12/07 00:41:05;;;;;;;8.80;5.20;;;;;;;6.75;60.51;100827.17;106285;1296;22006;-66
2022/12/07 00:43:31;;;;;;;7.30;4.20;;;;;;;6.75;60.58;100820.36;106539;1301;21969;-64
2022/12/07 00:45:56;;;;;;;7.40;4.10;;;;;;;6.70;60.39;100810.73;106213;1302;21955;-64
2022/12/07 00:48:22;;;;;;;8.20;4.80;;;;;;;6.73;60.36;100805.35;106286;1301;21960;-66
2022/12/07 00:50:48;;;;;;;8.60;4.50;;;;;;;6.73;60.40;100798.55;106322;1301;22021;-67
2022/12/07 00:53:15;;;;;;;11.10;5.10;;;;;;;6.75;60.21;100794.02;106300;1298;21960;-64
2022/12/07 00:55:40;;;;;;;8.30;4.30;;;;;;;6.74;60.22;100789.66;106335;1300;21991;-66
2022/12/07 00:58:06;;;;;;;9.10;4.70;;;;;;;6.68;60.29;100785.06;106464;1301;21973;-63
2022/12/07 01:00:32;;;;;;;7.00;3.50;;;;;;;6.65;60.53;100788.17;106299;1301;22006;-64
2022/12/07 01:02:58;;;;;;;10.20;4.30;;;;;;;6.69;60.69;100782.96;106298;1301;21966;-67
2022/12/07 01:05:23;;;;;;;10.00;4.50;;;;;;;6.64;60.71;100779.61;106355;1301;21943;-66
2022/12/07 07:39:41;;;;;;;5.70;3.30;;;;;;;9.73;64.54;100591.95;106277;1301;22340;-70
2022/12/07 07:42:07;;;;;;;4.80;3.40;;;;;;;9.80;64.54;100591.39;106399;1300;22090;-61
2022/12/07 07:44:34;;;;;;;5.70;3.20;;;;;;;9.86;64.59;100582.77;106327;1301;21976;-62
2022/12/07 07:47:00;;;;;;;5.30;3.80;;;;;;;9.91;64.60;100582.21;106301;1298;22004;-61
2022/12/07 07:49:25;;;;;;;4.50;3.10;;;;;;;10.04;64.53;100582.65;106300;1301;21979;-63
2022/12/07 07:51:51;;;;;;;6.30;3.50;;;;;;;10.08;64.70;100582.63;106365;1301;21977;-70
2022/12/07 07:54:17;;;;;;;6.50;4.10;;;;;;;10.11;65.11;100577.52;106419;1301;21954;-62
2022/12/07 07:56:43;;;;;;;5.90;4.10;;;;;;;10.22;65.16;100569.35;106288;1300;21965;-61
2022/12/07 07:59:09;;;;;;;6.20;4.40;;;;;;;10.33;65.13;100569.45;106167;1303;21977;-70
2022/12/07 08:01:34;;;;;;;7.60;4.40;;;;;;;10.44;65.05;100567.45;106258;1301;21960;-71
2022/12/07 08:04:00;;;;;;;5.90;4.00;;;;;;;10.54;65.28;100563.89;106284;1301;21953;-73
2022/12/07 08:06:26;;;;;;;9.20;4.70;;;;;;;10.62;65.31;100561.52;106394;1299;21964;-68
2022/12/07 08:08:52;;;;;;;5.20;4.00;;;;;;;10.67;65.73;100558.66;106450;1301;21995;-70
2022/12/07 08:11:18;;;;;;;6.60;4.20;;;;;;;10.73;66.24;100557.39;106355;1301;21993;-62
2022/12/07 08:13:47;;;;;;;6.30;4.60;;;;;;;10.83;66.46;100561.66;106275;1301;21972;-62
2022/12/07 08:16:14;;;;;;;7.10;4.20;;;;;;;11.00;65.87;100563.23;106397;1301;22756;-61
2022/12/07 08:18:40;;;;;;;6.50;4.00;;;;;;;11.11;65.42;100561.88;106514;1301;24414;-71
2022/12/07 08:21:07;;;;;;;6.90;4.20;;;;;;;11.10;65.64;100563.64;106429;1301;22000;-71
2022/12/07 08:23:33;;;;;;;6.40;3.90;;;;;;;11.14;65.66;100555.53;106489;1301;21960;-62
2022/12/07 08:26:07;;;;;;;7.90;4.10;;;;;;;11.17;65.71;100552.86;106410;1300;22427;-61
2022/12/07 08:28:32;;;;;;;7.80;3.80;;;;;;;11.22;65.60;100547.02;106232;1302;21960;-72
2022/12/07 08:31:00;;;;;;;8.60;3.50;;;;;;;11.23;65.92;100545.05;106298;1302;21954;-61
2022/12/07 08:33:26;;;;;;;8.30;3.90;;;;;;;11.27;66.01;100546.59;106255;1301;21972;-62
2022/12/07 08:35:52;;;;;;;6.30;3.50;;;;;;;11.36;66.00;100540.67;106196;1301;21971;-73
2022/12/07 08:38:17;;;;;;;6.80;3.50;;;;;;;11.41;66.06;100536.73;106381;1294;21959;-72
2022/12/07 08:40:43;;;;;;;7.00;3.80;;;;;;;11.44;65.89;100533.55;106319;1302;21956;-72
2022/12/07 08:43:09;;;;;;;8.10;3.70;;;;;;;11.46;66.17;100524.04;106423;1302;22422;-74
2022/12/07 08:45:35;;;;;;;8.10;3.70;;;;;;;11.52;66.18;100521.14;106471;1301;21972;-74
2022/12/07 08:48:07;;;;;;;8.80;3.80;;;;;;;11.56;66.35;100524.59;106269;1301;23576;-72
2022/12/07 08:50:33;;;;;;;9.40;3.50;;;;;;;11.65;65.92;100521.14;106299;1300;23047;-64
2022/12/07 08:52:59;;;;;;;10.90;4.50;;;;;;;11.68;65.80;100519.15;106078;1302;23611;-72
2022/12/07 08:55:26;;;;;;;5.20;3.20;;;;;;;11.71;65.81;100515.77;106242;1296;21958;-63
2022/12/07 08:57:51;;;;;;;8.40;4.20;;;;;;;11.71;65.59;100515.77;106359;1301;23457;-75
2022/12/07 09:00:17;;;;;;;8.60;4.00;;;;;;;11.74;65.51;100513.44;106379;1301;21950;-75
2022/12/07 09:02:44;;;;;;;11.60;5.90;;;;;;;11.68;66.19;100515.13;106302;1301;21963;-64
2022/12/07 09:05:11;;;;;;;9.20;5.10;;;;;;;11.75;65.82;100509.56;106336;1301;22049;-63
2022/12/07 09:07:37;;;;;;;10.60;5.60;;;;;;;11.79;65.86;100505.45;106232;1301;23609;-62
2022/12/07 09:10:04;;;;;;;11.70;4.90;;;;;;;11.84;65.74;100502.02;106215;1301;21954;-65
2022/12/07 09:12:30;;;;;;;10.50;4.80;;;;;;;11.86;65.91;100497.45;106341;1301;23060;-63
2022/12/07 09:14:55;;;;;;;13.80;5.80;;;;;;;11.92;65.68;100493.11;106251;1301;23689;-63
2022/12/07 09:17:21;;;;;;;11.80;5.80;;;;;;;11.89;65.91;100489.13;106228;1298;21953;-64
2022/12/07 09:19:47;;;;;;;10.50;5.60;;;;;;;11.92;65.70;100488.55;106431;1301;21963;-73
2022/12/07 09:22:14;;;;;;;14.40;6.10;;;;;;;11.92;65.81;100486.09;106379;1301;21956;-63
2022/12/07 09:24:39;;;;;;;14.00;4.90;;;;;;;11.87;66.03;100483.89;106185;1301;21960;-63
2022/12/07 09:27:05;;;;;;;18.20;6.20;;;;;;;11.90;65.93;100479.97;106248;1301;22011;-75
2022/12/07 09:29:31;;;;;;;25.00;7.70;;;;;;;11.93;65.82;100480.45;106252;1301;21978;-64
2022/12/07 09:31:56;;;;;;;13.50;5.20;;;;;;;11.87;66.25;100482.13;106436;1301;23618;-73
2022/12/07 09:34:23;;;;;;;12.80;6.10;;;;;;;11.87;66.19;100486.36;106376;1301;22934;-63
2022/12/07 09:36:48;;;;;;;12.70;7.40;;;;;;;11.83;66.57;100483.77;106208;1301;21957;-72
2022/12/07 09:39:14;;;;;;;12.70;6.30;;;;;;;11.87;66.38;100484.92;106195;1301;21958;-72
2022/12/07 09:41:41;;;;;;;12.60;8.40;;;;;;;11.91;66.56;100485.05;106388;1299;21960;-63
2022/12/07 09:44:11;;;;;;;16.40;12.30;;;;;;;12.00;66.24;100480.87;106404;1298;22008;-74
2022/12/07 09:46:39;;;;;;;14.50;9.50;;;;;;;12.07;66.10;100479.90;106518;1301;21953;-73
2022/12/07 09:49:05;;;;;;;9.70;5.10;;;;;;;12.10;66.01;100477.91;106441;1301;21957;-63
2022/12/07 09:51:31;;;;;;;9.70;5.90;;;;;;;12.14;65.95;100479.60;106178;1301;22070;-62
2022/12/07 09:53:57;;;;;;;11.30;6.60;;;;;;;12.15;66.08;100479.95;106149;1303;21977;-74
2022/12/07 09:56:23;;;;;;;8.90;3.90;;;;;;;12.16;66.05;100477.99;106289;1301;22018;-63
2022/12/07 09:58:49;;;;;;;10.70;3.30;;;;;;;12.23;65.99;100476.11;106211;1301;23687;-73
2022/12/07 10:01:17;;;;;;;9.70;3.80;;;;;;;12.28;65.75;100472.32;106232;1301;21962;-74
2022/12/07 10:03:51;;;;;;;7.50;3.40;;;;;;;12.29;65.90;100467.39;106366;1301;21968;-62
2022/12/07 10:06:16;;;;;;;6.10;2.90;;;;;;;12.31;65.77;100462.23;106190;1302;23595;-74
2022/12/07 10:08:43;;;;;;;7.00;3.00;;;;;;;12.32;65.79;100462.75;106204;1301;21967;-63
2022/12/07 10:11:10;;;;;;;8.10;2.50;;;;;;;12.34;65.77;100462.55;106258;1301;21977;-62
2022/12/07 10:13:37;;;;;;;7.20;2.80;;;;;;;12.34;65.92;100458.84;106467;1301;21970;-62
2022/12/07 10:16:03;;;;;;;8.30;3.80;;;;;;;12.30;65.99;100461.38;106334;1301;23651;-73
2022/12/07 10:18:32;;;;;;;10.10;3.70;;;;;;;12.30;66.17;100463.33;106258;1299;21982;-63
2022/12/07 10:21:09;;;;;;;9.40;3.50;;;;;;;12.36;65.98;100458.11;106172;1301;21964;-74
2022/12/07 10:23:36;;;;;;;11.20;4.70;;;;;;;12.33;65.92;100457.10;106265;1300;21958;-73
2022/12/07 10:26:28;;;;;;;8.50;4.00;;;;;;;12.32;65.86;100456.77;106194;1299;21973;-61
2022/12/07 10:28:54;;;;;;;11.60;5.40;;;;;;;12.34;65.90;100455.86;106397;1301;21972;-63
2022/12/07 10:31:22;;;;;;;14.00;5.60;;;;;;;12.35;66.04;100454.95;106402;1301;22002;-73
2022/12/07 10:33:51;;;;;;;7.20;3.80;;;;;;;12.34;66.14;100451.64;106206;1301;23692;-63
2022/12/07 10:36:35;;;;;;;8.10;3.60;;;;;;;12.39;66.13;100450.48;106350;1285;22213;-73
2022/12/07 10:39:03;;;;;;;8.00;3.00;;;;;;;12.36;66.15;100448.25;106249;1301;21952;-74
2022/12/07 10:41:29;;;;;;;8.80;3.70;;;;;;;12.38;66.19;100442.23;106185;1300;21970;-62
2022/12/07 10:43:56;;;;;;;8.40;4.00;;;;;;;12.44;65.94;100444.41;106236;1301;22008;-65
2022/12/07 10:46:40;;;;;;;14.90;6.60;;;;;;;12.50;65.66;100445.34;106250;1301;21962;-63
2022/12/07 10:49:06;;;;;;;15.10;6.20;;;;;;;12.52;65.67;100449.55;106367;1293;22008;-62
2022/12/07 10:52:14;;;;;;;16.20;7.10;;;;;;;12.55;65.63;100445.25;106431;1301;21976;-73
2022/12/07 10:54:45;;;;;;;12.10;5.30;;;;;;;12.64;65.49;100438.39;105763;1308;23735;-62
2022/12/07 10:57:24;;;;;;;8.40;4.30;;;;;;;12.69;65.37;100437.23;106367;1301;23399;-73
2022/12/07 10:59:53;;;;;;;9.70;4.90;;;;;;;12.74;65.32;100433.63;106288;1301;21972;-62
2022/12/07 11:02:26;;;;;;;9.30;4.30;;;;;;;12.77;65.12;100431.27;106179;1301;21963;-63
2022/12/07 11:04:58;;;;;;;12.70;4.70;;;;;;;12.84;65.15;100427.42;106263;1287;21965;-73
2022/12/07 11:07:42;;;;;;;9.10;5.30;;;;;;;12.90;65.00;100426.95;106209;1302;21962;-63
2022/12/07 11:10:22;;;;;;;20.70;11.90;;;;;;;12.92;64.73;100425.68;106227;1298;22023;-72
2022/12/07 11:13:05;;;;;;;13.50;6.50;;;;;;;12.92;64.81;100424.25;106205;1301;21959;-63
2022/12/07 11:16:09;;;;;;;13.00;5.30;;;;;;;12.91;64.72;100423.75;106410;1301;21971;-65
2022/12/07 11:19:00;;;;;;;12.80;4.70;;;;;;;12.89;64.62;100419.04;106446;1301;21974;-75
2022/12/07 11:21:50;;;;;;;19.50;8.90;;;;;;;12.82;64.90;100420.95;106285;1301;22427;-63
2022/12/07 11:24:18;;;;;;;25.40;12.80;;;;;;;12.81;65.10;100417.98;106402;1300;23641;-74
2022/12/07 11:27:02;;;;;;;22.40;12.60;;;;;;;12.86;64.98;100412.41;106466;1301;21970;-74
2022/12/07 11:29:46;;;;;;;13.90;7.30;;;;;;;12.92;64.93;100410.70;106384;1299;21965;-64
2022/12/07 11:32:27;;;;;;;12.00;6.50;;;;;;;12.87;65.07;100408.68;106243;1301;21966;-74
2022/12/07 11:35:08;;;;;;;10.70;4.90;;;;;;;12.80;65.33;100404.80;106162;1301;21975;-73
2022/12/07 11:37:35;;;;;;;14.40;5.00;;;;;;;12.77;65.34;100399.74;106114;1302;21975;-64
2022/12/07 11:40:03;;;;;;;11.20;5.60;;;;;;;12.84;65.18;100398.19;106068;1302;22753;-75
2022/12/07 11:42:33;;;;;;;10.80;5.30;;;;;;;12.93;65.03;100398.34;106264;1292;21963;-74
2022/12/07 11:45:00;;;;;;;11.50;5.10;;;;;;;12.95;64.87;100396.91;106058;1301;21957;-75
2022/12/07 11:47:28;;;;;;;8.20;3.80;;;;;;;12.97;64.81;100398.45;106297;1301;21980;-76
2022/12/07 11:50:08;;;;;;;7.00;2.80;;;;;;;12.97;64.89;100391.74;106397;1288;21974;-65
2022/12/07 11:52:53;;;;;;;10.90;5.30;;;;;;;12.98;64.75;100386.98;106228;1301;21973;-74
2022/12/07 11:55:45;;;;;;;10.10;4.50;;;;;;;13.00;64.68;100385.17;106371;1301;21991;-73
2022/12/07 11:58:47;;;;;;;8.60;3.90;;;;;;;13.03;64.71;100380.88;106274;1300;21511;-73
2022/12/07 12:01:13;;;;;;;8.00;3.60;;;;;;;13.03;64.68;100377.52;106381;1301;21957;-63
2022/12/07 12:03:45;;;;;;;11.80;4.50;;;;;;;12.99;64.50;100373.91;106264;1301;21972;-76
2022/12/07 12:06:11;;;;;;;32.60;11.50;;;;;;;12.95;64.70;100373.30;106423;1301;23610;-63
2022/12/07 12:08:46;;;;;;;13.90;6.30;;;;;;;12.99;64.63;100371.47;106333;1301;21961;-73
2022/12/07 12:11:38;;;;;;;15.70;7.50;;;;;;;13.01;64.76;100369.29;106577;1301;21971;-75
2022/12/07 12:14:10;;;;;;;22.10;13.00;;;;;;;13.05;64.62;100367.61;106456;1301;21960;-74
2022/12/07 12:17:09;;;;;;;18.20;10.00;;;;;;;13.09;64.64;100367.17;106238;1301;22004;-62
2022/12/07 12:20:01;;;;;;;15.00;9.00;;;;;;;13.15;64.47;100367.21;106102;1301;21960;-63
2022/12/07 12:22:42;;;;;;;13.80;8.20;;;;;;;13.21;64.25;100374.30;106083;1303;21959;-63
2022/12/07 12:25:21;;;;;;;11.20;5.50;;;;;;;13.23;64.37;100373.37;106255;1301;21954;-62
2022/12/07 12:27:47;;;;;;;10.80;5.10;;;;;;;13.26;64.44;100366.96;106203;1301;21946;-62
2022/12/07 12:30:36;;;;;;;12.20;4.60;;;;;;;13.28;64.40;100364.61;106330;1301;23700;-74
2022/12/07 12:33:26;;;;;;;9.60;5.80;;;;;;;13.34;64.27;100363.59;106303;1298;22007;-62
2022/12/07 12:36:23;;;;;;;9.20;4.30;;;;;;;13.38;64.14;100366.14;106486;1301;22004;-74
2022/12/07 12:39:08;;;;;;;7.40;3.30;;;;;;;13.36;64.29;100369.90;106224;1301;21966;-73
2022/12/07 12:42:19;;;;;;;10.60;4.20;;;;;;;13.33;64.38;100380.54;106181;1301;21957;-62
2022/12/07 12:44:25;;;;;;;8.90;3.00;;;;;;;13.37;64.32;100379.22;106134;1303;21958;-73
2022/12/07 12:46:58;;;;;;;5.50;2.60;;;;;;;13.36;64.35;100383.81;106193;1301;21976;-74
2022/12/07 12:49:24;;;;;;;8.50;3.40;;;;;;;13.29;64.63;100379.21;106151;1301;21971;-62
2022/12/07 12:51:54;;;;;;;6.50;2.90;;;;;;;13.17;64.95;100377.92;106172;1301;22038;-62
2022/12/07 12:54:21;;;;;;;5.00;2.60;;;;;;;13.18;64.85;100376.50;106341;1301;22000;-74
2022/12/07 12:56:58;;;;;;;5.60;2.00;;;;;;;13.19;64.86;100375.23;106400;1301;21954;-62
2022/12/07 12:59:53;;;;;;;4.20;2.00;;;;;;;13.21;64.71;100369.36;106244;1301;21961;-62
2022/12/07 13:02:54;;;;;;;5.50;2.00;;;;;;;13.21;64.83;100365.84;106160;1301;21954;-62
2022/12/07 13:05:21;;;;;;;6.30;2.90;;;;;;;13.22;64.80;100367.06;105922;1300;21986;-75
2022/12/07 13:07:47;;;;;;;7.20;3.20;;;;;;;13.23;64.73;100366.84;106459;1301;21974;-74
2022/12/07 13:10:28;;;;;;;4.80;2.40;;;;;;;13.23;64.69;100361.58;106276;1302;21957;-73
2022/12/07 13:15:52;;;;;;;3.60;1.70;;;;;;;13.24;64.40;100357.31;106221;1300;23071;-61
2022/12/07 13:18:27;;;;;;;3.50;1.30;;;;;;;13.27;64.30;100357.59;106238;1303;24319;-73
2022/12/07 13:20:54;;;;;;;3.60;1.50;;;;;;;13.26;64.48;100360.27;106315;1293;21982;-61
2022/12/07 13:23:22;;;;;;;4.20;2.30;;;;;;;13.23;64.46;100354.17;106484;1298;23130;-62
2022/12/07 13:25:52;;;;;;;9.40;2.70;;;;;;;13.24;64.60;100356.26;106436;1302;22030;-76
2022/12/07 13:28:18;;;;;;;4.10;2.40;;;;;;;13.24;64.55;100354.86;106409;1302;22103;-62
2022/12/07 13:30:58;;;;;;;7.10;2.70;;;;;;;13.24;64.60;100358.89;106131;1302;21961;-76
2022/12/07 13:33:24;;;;;;;;;;;;;;;13.23;64.62;100360.86;106292;1301;22007;-76
2022/12/07 13:35:53;;;;;;;5.00;2.70;;;;;;;13.21;64.76;100365.50;106304;1301;21958;-76
2022/12/07 13:38:25;;;;;;;7.10;3.30;;;;;;;13.25;64.69;100364.52;106297;1299;21960;-62
2022/12/07 13:41:05;;;;;;;7.00;3.20;;;;;;;13.27;64.50;100364.48;106165;1300;21972;-62
2022/12/07 13:43:30;;;;;;;8.10;3.70;;;;;;;13.30;64.32;100360.88;106233;1301;23745;-75
2022/12/07 13:45:57;;;;;;;7.90;4.50;;;;;;;13.31;64.33;100358.04;106062;1301;23856;-63
2022/12/07 13:48:35;;;;;;;8.40;3.90;;;;;;;13.30;64.40;100361.39;106233;1301;22145;-63
2022/12/07 13:51:02;;;;;;;10.50;4.40;;;;;;;13.34;64.36;100362.54;106378;1300;21948;-63
2022/12/07 13:53:30;;;;;;;11.90;4.70;;;;;;;13.33;64.31;100360.98;106447;1301;22010;-74
2022/12/07 13:55:57;;;;;;;11.00;7.50;;;;;;;13.28;64.37;100359.68;105923;1302;382942;-63
2022/12/07 13:58:24;;;;;;;11.70;8.00;;;;;;;13.27;64.51;100365.17;106221;1301;21969;-75
2022/12/07 14:00:49;;;;;;;12.10;6.50;;;;;;;13.27;64.45;100363.23;106359;1301;21968;-63
2022/12/07 14:03:16;;;;;;;10.60;5.50;;;;;;;13.27;64.59;100363.59;106381;1302;21958;-63
2022/12/07 14:05:42;;;;;;;6.70;3.70;;;;;;;13.28;64.38;100360.75;106381;1301;21981;-73
2022/12/07 14:08:11;;;;;;;7.50;4.10;;;;;;;13.29;64.33;100361.27;106238;1300;22218;-74
2022/12/07 14:10:39;;;;;;;8.20;4.50;;;;;;;13.26;64.42;100363.43;106235;1302;21963;-76
2022/12/07 14:13:35;;;;;;;8.70;3.70;;;;;;;13.26;64.47;100367.13;106292;1301;21988;-62
2022/12/07 14:16:03;;;;;;;9.10;3.50;;;;;;;13.25;64.52;100368.75;106135;1302;21949;-63
2022/12/07 14:18:39;;;;;;;7.90;3.70;;;;;;;13.23;64.39;100370.55;106381;1302;23067;-63
2022/12/07 14:21:25;;;;;;;7.40;5.40;;;;;;;13.23;64.43;100370.73;106221;1301;21979;-75
2022/12/07 14:24:11;;;;;;;25.50;13.80;;;;;;;13.12;64.89;100365.70;106205;1302;21967;-76
2022/12/07 14:26:39;;;;;;;32.60;15.60;;;;;;;13.18;64.88;100367.48;106236;1299;23065;-64
2022/12/07 14:29:28;;;;;;;39.90;19.20;;;;;;;13.26;64.49;100367.14;106248;1302;23145;-75
2022/12/07 14:31:54;;;;;;;52.20;26.20;;;;;;;13.32;64.33;100371.92;106302;1303;23592;-76
2022/12/07 14:34:21;;;;;;;51.10;33.10;;;;;;;13.34;64.41;100374.16;106196;1302;21979;-75
2022/12/07 14:36:47;;;;;;;32.20;22.70;;;;;;;13.30;64.68;100375.52;106220;1299;21967;-63
2022/12/07 14:39:12;;;;;;;26.30;18.20;;;;;;;13.32;64.60;100375.98;106198;1292;21966;-64
2022/12/07 14:41:51;;;;;;;24.60;13.60;;;;;;;13.36;64.39;100374.31;106314;1301;23652;-64
2022/12/07 14:44:16;;;;;;;25.00;13.80;;;;;;;13.41;64.43;100374.20;106153;1301;23735;-75
2022/12/07 14:46:42;;;;;;;22.00;10.00;;;;;;;13.44;64.45;100380.32;106165;1301;21955;-76
2022/12/07 14:49:08;;;;;;;15.40;7.90;;;;;;;13.50;64.24;100381.92;106196;1302;21963;-74
2022/12/07 14:51:34;;;;;;;15.10;7.80;;;;;;;13.54;64.10;100385.34;106360;1302;21966;-61
2022/12/07 14:53:59;;;;;;;11.90;6.10;;;;;;;13.53;64.22;100389.61;106441;1301;21976;-73
2022/12/07 14:56:25;;;;;;;12.80;5.80;;;;;;;13.55;64.25;100391.86;106279;1302;21959;-74
2022/12/07 14:58:51;;;;;;;14.10;6.90;;;;;;;13.58;64.26;100387.55;106169;1288;21966;-73
2022/12/07 15:01:17;;;;;;;10.70;7.20;;;;;;;13.58;64.32;100388.98;106271;1302;21957;-62
2022/12/07 15:03:42;;;;;;;12.50;7.10;;;;;;;13.54;64.44;100387.64;106236;1298;21954;-76
2022/12/07 15:06:12;;;;;;;18.10;9.20;;;;;;;13.51;64.61;100387.38;106288;1302;21965;-74
2022/12/07 15:08:38;;;;;;;12.90;8.00;;;;;;;13.54;64.44;100381.83;106156;1302;22006;-74
2022/12/07 15:11:04;;;;;;;15.20;8.00;;;;;;;13.49;64.49;100377.89;106172;1302;21938;-61
2022/12/07 15:16:17;;;;;;;14.20;8.50;;;;;;;13.36;65.06;100385.39;106137;1302;21973;-62
2022/12/07 15:18:44;;;;;;;12.70;10.00;;;;;;;13.36;65.08;100388.04;106188;1300;23059;-62
2022/12/07 15:21:13;;;;;;;16.60;12.00;;;;;;;13.34;65.17;100386.52;106304;1302;21941;-62
2022/12/07 15:23:39;;;;;;;315.30;130.00;;;;;;;13.30;65.33;100390.66;106315;1301;21963;-74
2022/12/07 15:26:04;;;;;;;156.30;63.60;;;;;;;13.30;65.25;100400.34;106221;1302;21966;-74
2022/12/07 15:28:30;;;;;;;200.50;126.60;;;;;;;13.31;65.27;100403.14;106207;1302;21958;-62
2022/12/07 15:30:55;;;;;;;92.80;60.60;;;;;;;13.21;65.50;100401.79;106139;1301;21960;-62
2022/12/07 15:33:21;;;;;;;60.60;42.20;;;;;;;13.13;65.74;100402.50;106188;1298;21966;-73
2022/12/07 15:35:47;;;;;;;80.90;56.80;;;;;;;13.10;65.98;100405.37;106245;1302;21968;-63
2022/12/07 15:38:13;;;;;;;52.90;37.40;;;;;;;13.10;66.22;100404.14;106262;1301;21970;-62
2022/12/07 15:40:38;;;;;;;37.10;23.10;;;;;;;13.12;65.93;100405.16;106192;1302;21960;-74
2022/12/07 15:43:04;;;;;;;23.20;12.60;;;;;;;13.15;66.06;100410.73;106209;1298;21959;-61
2022/12/07 15:45:30;;;;;;;52.40;21.50;;;;;;;13.21;65.65;100411.30;106292;1302;23249;-73
2022/12/07 15:47:56;;;;;;;234.70;165.60;;;;;;;13.16;65.71;100406.66;106286;1294;22008;-62
2022/12/07 15:50:22;;;;;;;69.60;53.40;;;;;;;13.14;65.84;100405.11;106109;1302;23624;-74
2022/12/07 15:52:48;;;;;;;37.00;25.30;;;;;;;13.23;65.37;100405.98;106281;1302;21975;-61
2022/12/07 15:55:14;;;;;;;165.80;110.00;;;;;;;13.28;65.30;100409.73;106269;1301;21968;-62
2022/12/07 15:57:39;;;;;;;79.60;54.90;;;;;;;13.28;65.29;100407.98;106474;1302;21959;-75
2022/12/07 16:00:06;;;;;;;216.70;127.60;;;;;;;13.29;65.26;100406.00;106205;1301;21993;-75
2022/12/07 16:02:32;;;;;;;200.20;123.10;;;;;;;13.29;65.23;100403.54;106313;1302;21965;-62
2022/12/07 16:04:58;;;;;;;169.00;102.90;;;;;;;13.28;65.23;100404.63;106157;1302;21973;-64
2022/12/07 16:07:23;;;;;;;160.10;99.60;;;;;;;13.31;64.95;100395.02;106354;1290;21965;-63
2022/12/07 16:09:49;;;;;;;138.40;94.90;;;;;;;13.34;64.92;100397.80;106238;1302;21959;-63
2022/12/07 16:12:15;;;;;;;114.80;74.70;;;;;;;13.33;64.73;100397.46;106194;1302;22768;-62
2022/12/07 16:14:41;;;;;;;162.90;104.40;;;;;;;13.32;64.67;100399.42;106210;1302;21971;-62
2022/12/07 16:17:07;;;;;;;131.50;89.90;;;;;;;13.29;64.75;100400.02;106259;1302;21966;-76
2022/12/07 16:19:33;;;;;;;61.70;47.30;;;;;;;13.34;64.42;100394.61;106288;1302;21978;-62
2022/12/07 16:21:59;;;;;;;36.00;27.50;;;;;;;13.40;64.07;100395.02;106187;1302;21961;-61
2022/12/07 16:24:25;;;;;;;20.50;13.60;;;;;;;13.39;63.98;100396.10;106215;1302;23071;-75
2022/12/07 16:26:51;;;;;;;17.40;14.20;;;;;;;13.40;63.89;100399.42;106304;1296;21973;-75
2022/12/07 16:29:18;;;;;;;17.30;13.50;;;;;;;13.38;64.00;100402.29;106241;1301;21960;-74
2022/12/07 16:31:43;;;;;;;11.40;9.20;;;;;;;13.34;63.91;100402.89;106297;1302;23625;-74
2022/12/07 16:34:09;;;;;;;128.80;87.50;;;;;;;13.19;64.52;100405.55;106154;1302;21968;-62
2022/12/07 16:36:35;;;;;;;32.50;24.70;;;;;;;13.13;64.64;100406.38;106196;1302;21960;-73
2022/12/07 16:39:01;;;;;;;24.80;19.20;;;;;;;13.18;64.68;100410.67;106144;1300;21968;-62
2022/12/07 16:41:26;;;;;;;45.30;37.10;;;;;;;13.19;64.37;100414.35;106401;1302;21971;-74
2022/12/07 16:43:52;;;;;;;37.50;28.80;;;;;;;13.15;64.42;100414.95;106358;1301;22438;-65
2022/12/07 16:46:19;;;;;;;19.40;15.30;;;;;;;13.15;64.44;100414.79;106514;1302;23593;-76
2022/12/07 16:48:45;;;;;;;17.90;14.50;;;;;;;13.18;64.12;100412.42;106430;1302;22750;-63
2022/12/07 16:51:13;;;;;;;37.50;23.10;;;;;;;13.22;63.93;100414.63;106576;1294;21954;-63
2022/12/07 16:53:40;;;;;;;33.60;20.80;;;;;;;13.09;63.80;100421.06;106329;1302;21996;-75
2022/12/07 16:56:10;;;;;;;19.70;14.50;;;;;;;13.01;63.98;100413.67;106565;1302;21981;-63
2022/12/07 16:58:36;;;;;;;11.80;8.80;;;;;;;13.00;64.16;100410.00;106530;1301;23619;-63
2022/12/07 17:01:12;;;;;;;16.40;10.90;;;;;;;12.96;64.30;100410.45;106342;1298;21999;-61
2022/12/07 17:03:38;;;;;;;70.20;46.00;;;;;;;12.92;64.40;100406.46;106345;1302;21975;-62
2022/12/07 17:06:15;;;;;;;153.30;102.60;;;;;;;12.88;64.20;100404.95;106585;1302;21973;-74
2022/12/07 17:08:42;;;;;;;89.50;62.00;;;;;;;12.86;64.63;100405.89;106379;1301;22005;-75
2022/12/07 17:11:15;;;;;;;126.50;83.40;;;;;;;12.92;64.70;100406.83;105567;1302;1002580;-62
2022/12/07 17:16:27;;;;;;;20.50;18.30;;;;;;;12.84;63.83;100417.57;106604;1302;21965;-72
2022/12/07 17:18:53;;;;;;;15.70;11.90;;;;;;;12.82;63.79;100419.55;106455;1301;21968;-62
2022/12/07 17:21:18;;;;;;;13.50;8.80;;;;;;;12.82;63.71;100422.19;106187;1301;21983;-75
2022/12/07 17:23:44;;;;;;;12.20;7.90;;;;;;;12.82;63.53;100422.36;106262;1303;21957;-74
2022/12/07 17:26:16;;;;;;;12.70;8.40;;;;;;;12.85;63.66;100425.66;106368;1302;21967;-62
2022/12/07 17:28:41;;;;;;;8.10;6.10;;;;;;;12.85;63.68;100424.23;106315;1303;22211;-63
2022/12/07 17:31:09;;;;;;;7.10;5.20;;;;;;;12.84;63.54;100428.84;106230;1301;22167;-62
2022/12/07 17:33:35;;;;;;;8.40;6.20;;;;;;;12.80;63.64;100431.91;106372;1302;23811;-62
2022/12/07 17:36:01;;;;;;;9.10;6.60;;;;;;;12.78;63.57;100429.67;106391;1303;23630;-75
2022/12/07 17:38:30;;;;;;;15.90;11.20;;;;;;;12.77;63.53;100430.58;106323;1303;21961;-62
2022/12/07 17:40:55;;;;;;;17.50;13.40;;;;;;;12.75;63.82;100430.96;106241;1303;21950;-75
2022/12/07 17:43:23;;;;;;;14.80;12.20;;;;;;;12.80;63.53;100430.50;107111;1302;21971;-75
2022/12/07 17:45:49;;;;;;;13.70;11.10;;;;;;;12.79;63.33;100431.41;106514;1302;23713;-62
2022/12/07 17:48:15;;;;;;;13.10;10.40;;;;;;;12.68;63.53;100434.10;106459;1297;21959;-63
2022/12/07 17:53:25;;;;;;;10.60;8.20;;;;;;;12.63;63.54;100432.95;106371;1302;21965;-75
2022/12/07 17:55:54;;;;;;;11.80;9.40;;;;;;;12.48;63.61;100436.23;106499;1302;21970;-63
2022/12/07 17:58:19;;;;;;;16.40;12.80;;;;;;;12.40;63.68;100439.73;106372;1302;21960;-64
2022/12/07 18:00:45;;;;;;;14.00;11.60;;;;;;;12.43;63.72;100439.32;106494;1292;21958;-74
2022/12/07 18:03:11;;;;;;;14.10;11.20;;;;;;;12.42;63.65;100436.86;106295;1302;21944;-74
2022/12/07 18:05:37;;;;;;;11.50;9.00;;;;;;;12.39;63.43;100438.16;106445;1303;21966;-74
2022/12/07 18:08:05;;;;;;;11.30;9.30;;;;;;;12.34;63.34;100440.73;106133;1303;21958;-61